Cactus Peak, Santa Catalina Island Weather observations

Data are for 10 minute period ending at time listed.
 Day   Time   Solar   Ave.   Ave.  Ave.  Vector    Max.   Stn.    Total
  of    of     Rad.   Air    Rel.  Wind   Wind     Wind   Baro.  Precip.
Year   Day            Temp.  Hum.  Speed  Dir.     Gust   Pres.         
2016   (PST)   W/m2    F      %     mph   deg.      mph    mb.     in.  
------------------------------------------------------------------------
  38   22:30    0.0    69   15.1    18     13.2    22.1    999.0   0.00  
  38   22:40    0.0    69   15.3    17     13.0    20.9    999.0   0.00  
  38   22:50    0.0    68   15.8    16     12.3    20.3    999.0   0.00  
  38   23:00    0.0    69   15.8    15     13.2    19.7    999.0   0.00  
  38   23:10    0.0    68   16.4    13     11.3    17.3    999.0   0.00  
  38   23:20    0.0    68   16.4    12     13.1    14.9    999.0   0.00  
  38   23:30    0.0    68   16.4    12     16.8    14.3    999.0   0.00  
  38   23:40    0.0    69   15.8    12     24.0    15.5    999.0   0.00  
  38   23:50    0.0    69   15.8    12     23.0    16.1    999.0   0.00  
  39    0:00    0.0    69   15.5    11     22.6    15.5    999.0   0.00  
  39    0:10    0.0    69   15.8    12     24.5    15.5    999.0   0.00  
  39    0:20    0.0    69   16.0    12     26.5    16.1    999.0   0.00  
  39    0:30    0.0    69   16.0    13     25.2    17.9    999.0   0.00  
  39    0:40    0.0    69   15.8    12     21.9    16.1    999.0   0.00  
  39    0:50    0.0    69   15.7    12     21.6    14.9    999.0   0.00  
  39    1:00    0.0    69   15.4    12     24.0    16.7    999.0   0.00  
  39    1:10    0.0    69   15.3    13     21.0    16.1    999.0   0.00  
  39    1:20    0.0    69   15.0    12     21.3    15.5    999.0   0.00  
  39    1:30    0.0    69   15.0    11     27.2    14.9    999.0   0.00  
  39    1:40    0.0    69   15.2     9     30.1    12.5    999.0   0.00  
  39    1:50    0.0    69   15.4     9     32.8    11.9    999.0   0.00  
  39    2:00    0.0    68   16.0     9     30.8    11.9    999.0   0.00  
  39    2:10    0.0    68   16.5     9     28.0    11.3    999.0   0.00  
  39    2:20    0.0    68   16.7     9     29.0    11.9    999.0   0.00  
  39    2:30    0.0    68   16.8     8     35.3    11.3    999.0   0.00  
  39    2:40    0.0    69   15.9     7     38.5     9.6    999.0   0.00  
  39    2:50    0.0    68   17.1     8     24.1    11.3    999.0   0.00  
  39    3:00    0.0    67   17.5    10     17.5    14.3    999.0   0.00  
  39    3:10    0.0    66   18.3    10     20.9    13.1    999.0   0.00  
  39    3:20    0.0    66   18.1    11     19.8    15.5    999.0   0.00  
  39    3:30    0.0    67   16.6    13     23.2    17.3    999.0   0.00  
  39    3:40    0.0    68   16.1    14     23.1    17.3    999.0   0.00  
  39    3:50    0.0    68   16.6    14     19.2    18.5    999.0   0.00  
  39    4:00    0.0    68   17.3    18     12.1    22.1    999.0   0.00  
  39    4:10    0.0    67   18.1    19     11.5    26.2    999.0   0.00  
  39    4:20    0.0    68   18.1    18     12.1    23.3    999.0   0.00  
  39    4:30    0.0    67   18.7    17     10.1    22.1    999.0   0.00  
  39    4:40    0.0    67   18.8    17     10.7    21.5    999.0   0.00  
  39    4:50    0.0    67   19.1    17      9.8    21.5    999.0   0.00  
  39    5:00    0.0    66   19.9    16      9.8    21.5    999.0   0.00  
  39    5:10    0.0    66   20.8    14      7.1    19.1    999.0   0.00  
  39    5:20    0.0    65   21.2    14     11.6    18.5    999.0   0.00  
  39    5:30    0.0    65   21.4    15     16.4    20.3    999.0   0.00  
  39    5:40    0.0    66   20.7    20     18.6    27.4    999.0   0.00  
  39    5:50    0.0    67   20.6    20     17.7    25.0    999.0   0.00  
  39    6:00    0.0    67   20.1    22     16.4    28.6    999.0   0.00  
  39    6:10    0.0    68   19.9    20     13.2    28.6    999.0   0.00  
  39    6:20    0.0    67   19.9    19     11.5    24.5    999.0   0.00  
  39    6:30    0.0    67   20.3    19     10.6    26.8    999.0   0.00  
  39    6:40    1.0    68   20.0    22     15.5    29.8    999.0   0.00  
  39    6:50    3.0    67   20.4    20     14.3    26.8    999.0   0.00  
  39    7:00    8.0    67   20.7    18     15.1    23.3    999.0   0.00  
  39    7:10   12.0    67   21.0    16     18.0    20.3    999.0   0.00  
  39    7:20   21.0    67   21.2    15     18.3    19.1    999.0   0.00  
  39    7:30   81.0    67   21.4    14     19.1    19.1    999.0   0.00  
  39    7:40  123.0    67   21.7    14     15.9    16.7    999.0   0.00  
  39    7:50  156.0    68   21.8    15     16.5    20.3    999.0   0.00  
  39    8:00  187.0    68   21.1    15     20.0    20.3    999.0   0.00  
  39    8:10  219.0    69   21.2    14     20.9    19.7    999.0   0.00  
  39    8:20  252.0    69   21.3    12     20.0    16.7    999.0   0.00  
  39    8:30  284.0    70   20.9    13     18.5    17.3    999.0   0.00  
  39    8:40  315.0    70   20.7    12     18.8    17.3    999.0   0.00  
  39    8:50  346.0    70   20.6    11     18.8    15.5    999.0   0.00  
  39    9:00  376.0    71   20.3    12     21.5    17.9    999.0   0.00  
  39    9:10  406.0    71   19.5    12     22.2    16.1    999.0   0.00  
  39    9:20  434.0    72   18.3    11     23.9    14.9    999.0   0.00  
  39    9:30  462.0    73   17.8    11     22.7    15.5    999.0   0.00  
  39    9:40  487.0    74   17.2     7     25.1    12.5    999.0   0.00  
  39    9:50  513.0    74   16.3     9     23.3    13.7    999.0   0.00  
  39   10:00  536.0    75   15.8     8     21.3    13.1    999.0   0.00  
  39   10:10  559.0    75   16.0     6     30.7    10.8    999.0   0.00  
  39   10:20  580.0    76   15.4     6     34.5     9.6    999.0   0.00  
  39   10:30  599.0    78   15.8     4    182.0     7.8    999.0   0.00  
  39   10:40  617.0    78   15.7     6    161.7     9.6    999.0   0.00  
  39   10:50  633.0    79   15.1     6    148.9    10.2    999.0   0.00  
  39   11:00  648.0    79   14.2     6    148.5    11.9    999.0   0.00  
  39   11:10  661.0    79   14.2     6    149.8    10.2    999.0   0.00  
  39   11:20  673.0    79   13.9     5    125.3     9.0    999.0   0.00  
  39   11:30  684.0    80   14.0     5    141.7     9.6    999.0   0.00  
  39   11:40  691.0    78   14.5     7    146.7    10.8    999.0   0.00  
  39   11:50  696.0    78   14.4     8    140.2    13.7    999.0   0.00  
  39   12:00  702.0    78   14.4     8    150.0    13.7    999.0   0.00  
  39   12:10  703.0    78   14.2     7    138.5    11.9    999.0   0.00  
  39   12:20  704.0    78   14.1     8    133.4    13.1    999.0   0.00  
  39   12:30  703.0    78   14.0     7    126.3    10.8    999.0   0.00  
  39   12:40  702.0    78   14.0     6    142.4    10.2    999.0   0.00  
  39   12:50  699.0    80   13.8     5    108.5     9.0    999.0   0.00  
  39   13:00  692.0    80   13.3     6    132.1    11.3    999.0   0.00  
  39   13:10  684.0    80   13.9     4    137.3     8.4    999.0   0.00  
  39   13:20  674.0    80   14.0     4     93.3     7.2    999.0   0.00  
  39   13:30  663.0    80   13.9     3     96.3     7.8    999.0   0.00  
  39   13:40  649.0    80   13.6     4    124.8     8.4    999.0   0.00  
  39   13:50  634.0    79   14.2     4     21.4     6.0    999.0   0.00  
  39   14:00  618.0    80   14.9     3    282.5     5.4    999.0   0.00  
  39   14:10  600.0    80   14.5     3    319.6     7.2    999.0   0.00  
  39   14:20  580.0    79   14.4     5    183.5    10.2    999.0   0.00  
  39   14:30  559.0    80   14.6     3    155.1     7.2    999.0   0.00  
  39   14:40  538.0    82   14.0     2    260.7     5.4    999.0   0.00  
  39   14:50  514.0    81   14.4     3    196.3     8.4    999.0   0.00  
  39   15:00  488.0    81   15.3     3    289.2     6.0    999.0   0.00  
  39   15:10  462.0    80   16.5     5    304.6     6.6    999.0   0.00  
  39   15:20  434.0    79   16.6     4    318.2     6.0    999.0   0.00  
  39   15:30  406.0    79   15.6     4    330.3     6.0    999.0   0.00  
  39   15:40  377.0    78   15.5     4    335.3     6.6    999.0   0.00  
  39   15:50  346.0    79   15.3     4    339.7     5.4    999.0   0.00  
  39   16:00  315.0    78   16.1     4    353.0     6.0    999.0   0.00  
  39   16:10  283.0    78   15.7     4    336.2     6.6    999.0   0.00  
  39   16:20  250.0    78   15.9     5    348.5     6.0    999.0   0.00  
  39   16:30  217.0    77   16.2     6    334.2     7.2    999.0   0.00  
  39   16:40  185.0    77   16.5     6    344.7     7.2    999.0   0.00  
  39   16:50  153.0    76   16.9     6    328.4     6.6    999.0   0.00  
  39   17:00  120.0    75   17.1     7    327.0     7.8    999.0   0.00  
  39   17:10   80.0    75   16.7     7    327.5     7.2    999.0   0.00  
  39   17:20   46.0    74   16.8     7    336.6     8.4    999.0   0.00  
  39   17:30   23.0    74   17.3     8    346.2     9.0    999.0   0.00  
  39   17:40    7.0    73   17.5     8    344.5     9.6    999.0   0.00  
  39   17:50    3.0    73   17.6     9    356.4    11.3    999.0   0.00  
  39   18:00    0.0    73   17.2    10      5.9    11.9    999.0   0.00  
  39   18:10    0.0    74   16.3    11     11.2    11.9    999.0   0.00  
  39   18:20    0.0    73   15.9    12     10.9    13.7    999.0   0.00  
  39   18:30    0.0    74   15.7    12     10.2    13.1    999.0   0.00  
  39   18:40    0.0    74   16.0    12     12.2    12.5    999.0   0.00  
  39   18:50    0.0    74   16.2    12     11.7    13.1    999.0   0.00  
  39   19:00    0.0    74   16.5    12      7.5    13.1    999.0   0.00  
  39   19:10    0.0    74   16.6    11      7.2    12.5    999.0   0.00  
  39   19:20    0.0    74   17.0    11      3.8    11.9    999.0   0.00  
  39   19:30    0.0    73   17.5     9    341.6    10.8    999.0   0.00  
  39   19:40    0.0    73   17.4     8    342.0     9.6    999.0   0.00  
  39   19:50    0.0    73   17.2     8    344.1     9.0    999.0   0.00  
  39   20:00    0.0    74   16.9     8     12.2    10.8    999.0   0.00  
  39   20:10    0.0    74   16.5    10     20.6    12.5    999.0   0.00  
  39   20:20    0.0    75   16.3    10     21.9    12.5    999.0   0.00  
  39   20:30    0.0    74   16.5    10     23.5    11.3    999.0   0.00  
  39   20:40    0.0    74   16.6     9     21.0    11.3    999.0   0.00  
  39   20:50    0.0    74   16.7     8     21.3     9.6    999.0   0.00  
  39   21:00    0.0    75   16.3     6     22.4     7.2    999.0   0.00  
  39   21:10    0.0    75   16.3     5     18.1     6.0    999.0   0.00  
  39   21:20    0.0    75   16.1     5     20.0     6.6    999.0   0.00  
  39   21:30    0.0    75   16.2     6     19.9     6.6    999.0   0.00  
  39   21:40    0.0    74   16.7     6     11.9     7.2    999.0   0.00  
  39   21:50    0.0    74   16.7     7     17.4     7.8    999.0   0.00  
  39   22:00    0.0    74   16.5     7     29.7     7.8    999.0   0.00  
  39   22:10    0.0    73   16.8     7     33.2     7.8    999.0   0.00  
  39   22:20    0.0    73   16.8     8     34.1    10.2    999.0   0.00  

Return to Cactus Peak graphs page.


Western Regional Climate Center,wrcc@dri.edu